Latest Coastal Weather Observations for Mardie

IDW60701

Issued at 8:12 pm WST Wednesday 24 August 2016 (issued every 10 minutes, with the page automatically refreshed every 10 minutes)

About coastal observations | Map of coastal stations | Coastal observations for WA | Marine services | Other Formats
Station Details ID: 005008 Name: MARDIE Lat: -21.19 Lon: 115.98 Height: 11.0 m
Data from the previous 72 hours. | See also: Recent months at Mardie
Date/Time
WST
Temp
°C
Wind Pressure Rain since
9am
mm
Weather Cloud Vis
km
Sea
Height
m
Swell
Dir  Spd
kts
Gust
kts
hPa Trend Height
m
Period
s
Dir
24/08:00pm 17.0 NNW 3 4 1016.2 - 0.0 - - - - - - -
24/07:30pm 18.3 NNW 1 2 1016.0 - 0.0 - - - - - - -
24/07:00pm 18.9 NNW 1 2 1015.9 - 0.0 - - - - - - -
24/06:30pm 19.5 NNW 2 3 1015.6 - 0.0 - - - - - - -
24/06:00pm 20.9 NNW 4 6 1015.2 - 0.0 - - - - - - -
24/05:30pm 22.1 NNW 6 10 1014.9 - 0.0 - - - - - - -
24/05:00pm 22.8 N 7 11 1014.6 - 0.0 - - - - - - -
24/04:30pm 23.9 N 7 13 1014.2 - 0.0 - - - - - - -
24/04:00pm 23.8 N 9 12 1014.0 - 0.0 - - - - - - -
24/03:30pm 23.7 N 10 15 1014.0 - 0.0 - - - - - - -
24/03:00pm 24.5 NNE 10 14 1014.0 - 0.0 - - - - - - -
24/02:30pm 24.6 N 10 15 1013.9 - 0.0 - - - - - - -
24/02:00pm 25.3 NNE 10 16 1014.0 - 0.0 - - - - - - -
24/01:30pm 25.7 NE 8 15 1014.5 - 0.0 - - - - - - -
24/01:00pm 25.6 ESE 7 11 1014.9 - 0.0 - - - - - - -
24/12:30pm 25.2 NE 9 15 1015.4 - 0.0 - - - - - - -
24/12:00pm 25.1 ENE 12 18 1015.9 - 0.0 - - - - - - -
24/11:30am 24.7 ENE 10 14 1016.2 - 0.0 - - - - - - -
24/11:00am 24.1 E 13 18 1016.4 - 0.0 - - - - - - -
24/10:30am 23.8 E 14 19 1016.6 - 0.0 - - - - - - -
24/10:00am 22.6 E 15 19 1016.9 - 0.0 - - - - - - -
24/09:30am 21.8 E 16 21 1017.0 - 0.0 - - - - - - -
24/09:00am 20.9 E 13 16 1017.0 - 0.0 - - - - - - -
24/08:30am 18.7 E 10 13 1016.9 - 0.0 - - - - - - -
24/08:00am 16.7 E 7 10 1016.7 - 0.0 - - - - - - -
24/07:30am 14.6 E 5 7 1016.5 - 0.0 - - - - - - -
24/07:00am 11.4 E 8 8 1016.2 - 0.0 - - - - - - -
24/06:30am 9.5 E 7 7 1016.1 - 0.0 - - - - - - -
24/06:00am 9.4 ESE 7 8 1015.7 - 0.0 - - - - - - -
24/05:30am 9.2 ESE 6 7 1015.5 - 0.0 - - - - - - -
24/05:00am 10.0 ESE 5 6 1015.0 - 0.0 - - - - - - -
24/04:30am 10.4 ESE 5 6 1014.8 - 0.0 - - - - - - -
24/04:00am 10.5 SE 6 6 1014.7 - 0.0 - - - - - - -
24/03:30am 10.2 SE 5 5 1014.8 - 0.0 - - - - - - -
24/03:00am 10.2 SE 4 5 1014.5 - 0.0 - - - - - - -
24/02:30am 10.7 SE 5 5 1014.2 - 0.0 - - - - - - -
24/02:00am 10.9 SE 5 6 1014.4 - 0.0 - - - - - - -
24/01:30am 10.4 SE 5 6 1014.5 - 0.0 - - - - - - -
24/01:00am 11.7 E 5 6 1014.7 - 0.0 - - - - - - -
24/12:30am 11.3 ESE 4 5 1014.9 - 0.0 - - - - - - -
24/12:00am 11.8 ENE 4 5 1014.9 - 0.0 - - - - - - -
 
Date/Time
WST
Temp
°C
Wind Pressure Rain since
9am
mm
Weather Cloud Vis
km
Sea
Height
m
Swell
Dir  Spd
kts
Gust
kts
hPa Trend Height
m
Period
s
Dir
23/11:30pm 12.5 NNW 1 2 1015.0 - 0.0 - - - - - - -
23/11:00pm 13.5 NNW 5 6 1015.0 - 0.0 - - - - - - -
23/10:30pm 13.6 N 4 5 1015.2 - 0.0 - - - - - - -
23/10:00pm 13.6 N 5 5 1015.2 - 0.0 - - - - - - -
23/09:30pm 13.4 N 5 6 1015.5 - 0.0 - - - - - - -
23/09:00pm 14.4 NW 3 3 1015.3 - 0.0 - - - - - - -
23/08:30pm 14.5 NW 2 4 1015.3 - 0.0 - - - - - - -
23/08:00pm 14.9 WNW 4 5 1015.1 - 0.0 - - - - - - -
23/07:30pm 15.7 WNW 3 5 1014.9 - 0.0 - - - - - - -
23/07:00pm 16.5 WNW 5 6 1014.5 - 0.0 - - - - - - -
23/06:30pm 17.1 NW 5 7 1014.2 - 0.0 - - - - - - -
23/06:00pm 18.6 WNW 7 9 1013.7 - 0.0 - - - - - - -
23/05:30pm 19.9 NW 8 10 1013.4 - 0.0 - - - - - - -
23/05:00pm 20.7 NW 8 11 1013.3 - 0.0 - - - - - - -
23/04:30pm 21.1 NW 8 13 1013.1 - 0.0 - - - - - - -
23/04:00pm 22.3 NW 9 13 1012.9 - 0.0 - - - - - - -
23/03:30pm 22.7 NW 6 12 1013.0 - 0.0 - - - - - - -
23/03:00pm 22.9 NNW 6 9 1013.2 - 0.0 - - - - - - -
23/02:30pm 22.6 NNE 4 7 1013.3 - 0.0 - - - - - - -
23/02:00pm 23.4 SSW 3 8 1013.6 - 0.0 - - - - - - -
23/01:30pm 23.4 SW 3 9 1014.0 - 0.0 - - - - - - -
23/01:00pm 22.2 ESE 4 13 1014.5 - 0.0 - - - - - - -
23/12:30pm 21.7 SE 5 10 1015.0 - 0.0 - - - - - - -
23/12:00pm 21.0 ESE 7 13 1015.6 - 0.0 - - - - - - -
23/11:30am 20.7 ESE 8 15 1016.1 - 0.0 - - - - - - -
23/11:00am 20.2 ESE 9 15 1016.6 - 0.0 - - - - - - -
23/10:30am 19.8 ESE 9 16 1016.9 - 0.0 - - - - - - -
23/10:00am 19.1 SE 12 16 1017.2 - 0.0 - - - - - - -
23/09:30am 18.6 ESE 12 15 1017.3 - 0.0 - - - - - - -
23/09:00am 18.1 SE 12 18 1017.3 - 0.0 - - - - - - -
23/08:30am 16.4 SSE 7 10 1017.1 - 0.0 - - - - - - -
23/08:00am 13.8 SSE 5 7 1017.0 - 0.0 - - - - - - -
23/07:30am 11.2 S 6 8 1016.8 - 0.0 - - - - - - -
23/07:00am 8.7 S 6 7 1016.6 - 0.0 - - - - - - -
23/06:30am 7.6 S 7 8 1016.3 - 0.0 - - - - - - -
23/06:00am 8.3 S 6 7 1015.9 - 0.0 - - - - - - -
23/05:30am 8.3 S 6 9 1015.7 - 0.0 - - - - - - -
23/05:00am 9.5 S 7 8 1015.3 - 0.0 - - - - - - -
23/04:30am 9.3 SSW 7 8 1015.2 - 0.0 - - - - - - -
23/04:00am 9.1 SSW 7 8 1015.2 - 0.0 - - - - - - -
23/03:30am 9.8 SSW 6 8 1015.3 - 0.0 - - - - - - -
23/03:00am 10.6 S 8 9 1015.1 - 0.0 - - - - - - -
23/02:30am 10.7 S 6 8 1015.0 - 0.0 - - - - - - -
23/02:00am 11.0 SSW 8 10 1015.1 - 0.0 - - - - - - -
23/01:30am 11.0 SSW 8 9 1015.5 - 0.0 - - - - - - -
23/01:00am 10.9 SSW 7 9 1015.5 - 0.0 - - - - - - -
23/12:30am 11.2 SSW 7 8 1015.4 - 0.0 - - - - - - -
23/12:00am 12.3 SSW 7 8 1015.6 - 0.0 - - - - - - -
 
Date/Time
WST
Temp
°C
Wind Pressure Rain since
9am
mm
Weather Cloud Vis
km
Sea
Height
m
Swell
Dir  Spd
kts
Gust
kts
hPa Trend Height
m
Period
s
Dir
22/11:30pm 12.9 SSW 7 9 1015.6 - 0.0 - - - - - - -
22/11:00pm 13.6 SSW 8 10 1015.7 - 0.0 - - - - - - -
22/10:30pm 14.2 SSW 8 9 1015.6 - 0.0 - - - - - - -
22/10:00pm 15.0 SSW 7 9 1015.6 - 0.0 - - - - - - -
22/09:30pm 15.6 SSW 7 9 1015.6 - 0.0 - - - - - - -
22/09:00pm 16.4 SSW 7 9 1015.5 - 0.0 - - - - - - -
22/08:30pm 17.8 SSW 7 9 1015.1 - 0.0 - - - - - - -
22/08:00pm 19.4 SSW 9 11 1014.6 - 0.0 - - - - - - -
22/07:30pm 20.0 SSW 8 12 1014.0 - 0.0 - - - - - - -
22/07:00pm 20.9 SSW 10 13 1013.6 - 0.0 - - - - - - -
22/06:30pm 21.8 SSW 11 14 1013.4 - 0.0 - - - - - - -
22/06:00pm 22.7 S 13 17 1012.8 - 0.0 - - - - - - -
22/05:30pm 23.7 S 15 23 1012.5 - 0.0 - - - - - - -
22/05:00pm 24.3 S 17 25 1012.2 - 0.0 - - - - - - -
22/04:30pm 24.8 SSW 15 21 1012.0 - 0.0 - - - - - - -
22/04:00pm 25.1 S 17 24 1011.8 - 0.0 - - - - - - -
22/03:30pm 25.2 SSW 17 23 1011.8 - 0.0 - - - - - - -
22/03:20pm 25.6 SSW 16 29 1011.7 - 0.0 - - - - - - -
22/03:00pm 25.6 S 16 23 1011.8 - 0.0 - - - - - - -
22/02:31pm 25.6 SSW 16 27 1011.6 - 0.0 - - - - - - -
22/02:30pm 25.7 SSW 15 23 1011.7 - 0.0 - - - - - - -
22/02:00pm 25.5 S 15 22 1011.8 - 0.0 - - - - - - -
22/01:30pm 25.6 S 17 23 1012.1 - 0.0 - - - - - - -
22/01:00pm 25.3 S 16 24 1012.7 - 0.0 - - - - - - -
22/12:30pm 23.9 S 16 22 1013.1 - 0.0 - - - - - - -
22/12:20pm 24.0 S 16 26 1013.2 - 0.0 - - - - - - -
22/12:00pm 24.0 S 20 26 1013.6 - 0.0 - - - - - - -
22/11:30am 23.6 S 19 26 1014.0 - 0.0 - - - - - - -
22/11:00am 23.2 S 23 31 1014.2 - 0.0 - - - - - - -
22/10:30am 22.9 S 20 25 1014.3 - 0.0 - - - - - - -
22/10:00am 22.5 S 18 24 1014.5 - 0.0 - - - - - - -
22/09:30am 21.4 SSE 17 22 1014.6 - 0.0 - - - - - - -
22/09:00am 20.6 S 16 21 1014.6 - 0.0 - - - - - - -
22/08:30am 19.0 S 15 20 1014.7 - 0.0 - - - - - - -
22/08:00am 17.6 S 13 18 1014.5 - 0.0 - - - - - - -
22/07:30am 15.7 S 6 8 1014.2 - 0.0 - - - - - - -
22/07:00am 14.6 S 8 10 1014.0 - 0.0 - - - - - - -
22/06:30am 14.5 S 10 13 1013.5 - 0.0 - - - - - - -
22/06:00am 14.6 S 9 12 1013.2 - 0.0 - - - - - - -
22/05:30am 13.7 S 8 10 1012.8 - 0.0 - - - - - - -
22/05:00am 12.4 S 6 7 1012.6 - 0.0 - - - - - - -
22/04:30am 12.2 S 5 6 1012.3 - 0.0 - - - - - - -
22/04:00am 12.2 SSW 5 6 1012.1 - 0.0 - - - - - - -
22/03:30am 11.8 SSW 3 3 1012.3 - 0.0 - - - - - - -
22/03:00am 12.4 SSW 3 3 1012.2 - 0.0 - - - - - - -
22/02:30am 13.2 SW 6 7 1012.3 - 0.0 - - - - - - -
22/02:00am 14.2 SSW 5 6 1012.4 - 0.0 - - - - - - -
22/01:30am 15.5 SSW 5 7 1012.6 - 0.0 - - - - - - -
22/01:00am 16.8 SSW 7 10 1012.6 - 0.0 - - - - - - -
22/12:30am 16.5 SW 7 9 1012.7 - 0.0 - - - - - - -
22/12:00am 17.1 SW 7 10 1012.9 - 0.0 - - - - - - -
 
Date/Time
WST
Temp
°C
Wind Pressure Rain since
9am
mm
Weather Cloud Vis
km
Sea
Height
m
Swell
Dir  Spd
kts
Gust
kts
hPa Trend Height
m
Period
s
Dir
21/11:30pm 18.0 SW 8 11 1013.0 - 0.0 - - - - - - -
21/11:00pm 18.3 WSW 7 10 1013.1 - 0.0 - - - - - - -
21/10:30pm 19.0 SW 8 12 1013.2 - 0.0 - - - - - - -
21/10:00pm 19.7 WSW 8 13 1013.3 - 0.0 - - - - - - -
21/09:30pm 20.4 WSW 9 12 1013.3 - 0.0 - - - - - - -
21/09:00pm 20.6 WSW 8 12 1013.1 - 0.0 - - - - - - -
21/08:30pm 20.7 WSW 9 11 1012.8 - 0.0 - - - - - - -

Other Formats:

Comma delimited format used in spreadsheet applications
http://www.bom.gov.au/fwo/IDW60701/IDW60701.94306.axf

JavaScript Object Notation format (JSON) in row-major order
http://www.bom.gov.au/fwo/IDW60701/IDW60701.94306.json